Flight Track Log - Related Links

Times and Time Zones

All times are in EDT time to prevent confusion due to time zone crossing. See the DAL1578 flight status page for this flight to view local times or setup timezone preferences in your user account.

Time Position Orientation Groundspeed Altitude Reporting Facility
EDT Latitude Longitude Course Direction KTS MPH feet Rate Location/Type
Wed 12:54:49 PM 39.8000 -104.6667 106° East 197 227 6,700  Level Denver TRACON
Wed 12:55:37 PM 39.7500 -104.6500 166° South 254 292 8,000 1,872 Climbing Denver TRACON
Wed 12:56:38 PM 39.7500 -104.5500 90° East 298 343 10,100 945 Climbing Denver TRACON
Wed 12:57:00 PM 39.7578 -104.1631 113° Southeast  Level Estimated
Wed 12:57:44 PM 39.7333 -104.4333 100° East 297 342 10,000  Level Denver TRACON
Wed 12:58:00 PM 39.7227 -103.9934 113° Southeast  Level Estimated
Wed 12:58:45 PM 39.7000 -104.3167 110° East 305 351 12,100  Level Denver TRACON
Wed 12:59:00 PM 39.6874 -103.8239 90° East  Level Estimated
Wed 01:00:00 PM 39.6518 -103.6545 106° East  Level Estimated
Wed 01:00:14 PM 39.6664 -104.1475 104° East 374 430 14,100  Level Denver Center
Wed 01:01:16 PM 39.6331 -103.9956 106° East 410 472 16,600 2,468 Climbing Denver Center
Wed 01:02:18 PM 39.6039 -103.8517 105° East 414 476 19,200 2,448 Climbing Denver Center
Wed 01:03:21 PM 39.5678 -103.7047 108° East 396 456 21,700 2,064 Climbing Denver Center
Wed 01:04:23 PM 39.5308 -103.5600 108° East 421 484 23,500 1,694 Climbing Denver Center
Wed 01:05:25 PM 39.4917 -103.4106 109° East 433 498 25,200 1,645 Climbing Denver Center
Wed 01:06:27 PM 39.4503 -103.2572 109° East 447 514 26,900 1,548 Climbing Denver Center
Wed 01:07:29 PM 39.4008 -103.0711 109° East 454 522 28,400 1,258 Climbing Denver Center
Wed 01:08:31 PM 39.3575 -102.9114 109° East 470 541 29,500 1,016 Climbing Denver Center
Wed 01:09:33 PM 39.3133 -102.7483 109° East 477 549 30,500 726 Climbing Denver Center
Wed 01:10:35 PM 39.2667 -102.5764 109° East 497 572 31,000 919 Climbing Denver Center
Wed 01:11:37 PM 39.2147 -102.3864 109° East 502 578 32,400 1,008 Climbing Denver Center
Wed 01:12:40 PM 39.1708 -102.2250 109° East 502 578 33,100 720 Climbing Denver Center
Wed 01:13:42 PM 39.1242 -102.0589 110° East 510 587 33,900 823 Climbing Denver Center
Wed 01:14:44 PM 39.0686 -101.8633 110° East 516 594 34,800 532 Climbing Denver Center
Wed 01:15:46 PM 39.0203 -101.6969 110° East 517 595 35,000 97 Climbing Denver Center
Wed 01:16:48 PM 38.9644 -101.5028 110° East 518 596 35,000  Level Denver Center
Wed 01:17:50 PM 38.9169 -101.3372 110° East 518 596 35,000  Level Denver Center
Wed 01:18:52 PM 38.8603 -101.1425 110° East 517 595 35,000  Level Denver Center
Wed 01:19:54 PM 38.8117 -100.9786 111° Southeast 516 594 35,000  Level Denver Center
Wed 01:20:56 PM 38.7547 -100.7850 111° Southeast 516 594 35,000  Level Denver Center
Wed 01:21:58 PM 38.7044 -100.6189 111° Southeast 519 597 35,000  Level Denver Center
Wed 01:23:01 PM 38.6472 -100.4253 111° Southeast 521 600 35,000  Level Denver Center
Wed 01:23:41 PM 38.6131 -100.3128 111° Southeast 520 598 35,000  Level Kansas City Center
Wed 01:24:45 PM 38.5631 -100.1481 111° Southeast 520 598 35,000  Level Kansas City Center
Wed 01:25:45 PM 38.5033 -99.9536 111° Southeast 520 598 35,000  Level Kansas City Center
Wed 01:26:46 PM 38.4519 -99.7883 112° Southeast 521 600 35,000  Level Kansas City Center
Wed 01:27:50 PM 38.3933 -99.5956 111° Southeast 521 600 35,000  Level Kansas City Center
Wed 01:28:51 PM 38.3383 -99.4222 112° Southeast 522 601 35,000  Level Kansas City Center
Wed 01:29:55 PM 38.2842 -99.2508 112° Southeast 523 602 35,000  Level Kansas City Center
Wed 01:30:56 PM 38.2311 -99.0794 111° Southeast 523 602 35,000  Level Kansas City Center
Wed 01:31:57 PM 38.1758 -98.9064 112° Southeast 524 603 35,000  Level Kansas City Center
Wed 01:33:01 PM 38.1219 -98.7356 112° Southeast 524 603 35,000  Level Kansas City Center
Wed 01:34:01 PM 38.0667 -98.5642 112° Southeast 524 603 35,000  Level Kansas City Center
Wed 01:35:05 PM 38.0000 -98.3564 112° Southeast 531 611 35,000  Level Kansas City Center
Wed 01:36:05 PM 37.9436 -98.1842 113° Southeast 531 611 35,000  Level Kansas City Center
Wed 01:37:09 PM 37.8883 -98.0214 113° Southeast 531 611 35,000  Level Kansas City Center
Wed 01:38:09 PM 37.8289 -97.8431 113° Southeast 536 617 35,000  Level Kansas City Center
Wed 01:39:13 PM 37.7603 -97.6325 112° Southeast 541 623 35,000  Level Kansas City Center
Wed 01:40:13 PM 37.6933 -97.4636 117° Southeast 538 619 35,000  Level Kansas City Center
Wed 01:41:17 PM 37.6308 -97.3050 116° Southeast 537 618 35,000  Level Kansas City Center
Wed 01:42:18 PM 37.5625 -97.1400 118° Southeast 537 618 35,000  Level Kansas City Center
Wed 01:43:21 PM 37.4936 -96.9731 117° Southeast 536 617 35,000  Level Kansas City Center
Wed 01:44:22 PM 37.4097 -96.7733 118° Southeast 537 618 35,000  Level Kansas City Center
Wed 01:45:26 PM 37.3372 -96.6067 119° Southeast 541 623 35,000  Level Kansas City Center
Wed 01:46:27 PM 37.2661 -96.4411 118° Southeast 541 623 35,000  Level Kansas City Center
Wed 01:47:30 PM 37.1986 -96.2764 117° Southeast 532 612 35,000  Level Kansas City Center
Wed 01:48:30 PM 37.1267 -96.1114 119° Southeast 532 612 35,000  Level Kansas City Center
Wed 01:49:34 PM 37.0561 -95.9408 117° Southeast 543 625 35,000  Level Kansas City Center
Wed 01:50:35 PM 36.9706 -95.7447 119° Southeast 539 620 35,000  Level Kansas City Center
Wed 01:51:36 PM 36.8992 -95.5817 119° Southeast 535 616 35,000  Level Kansas City Center
Wed 01:52:40 PM 36.8275 -95.4200 119° Southeast 528 608 35,000  Level Kansas City Center
Wed 01:53:41 PM 36.7547 -95.2544 119° Southeast 530 610 35,000  Level Kansas City Center
Wed 01:54:42 PM 36.6811 -95.0883 119° Southeast 535 616 35,000  Level Kansas City Center
Wed 01:55:46 PM 36.6072 -94.9214 119° Southeast 539 620 35,000  Level Kansas City Center
Wed 01:56:49 PM 36.5325 -94.7567 119° Southeast 540 621 35,000  Level Kansas City Center
Wed 01:57:50 PM 36.4581 -94.5942 120° Southeast 540 621 35,000  Level Kansas City Center
Wed 01:58:53 PM 36.3844 -94.4297 119° Southeast 540 621 35,000  Level Kansas City Center
Wed 01:59:46 PM 36.3147 -94.2672 118° Southeast 539 620 35,000  Level Memphis Center
Wed 02:00:48 PM 36.2403 -94.1033 119° Southeast 539 620 35,000  Level Memphis Center
Wed 02:01:50 PM 36.1903 -93.9167 108° East 564 649 35,000  Level Memphis Center
Wed 02:02:52 PM 36.1353 -93.7228 109° East 573 659 35,000  Level Memphis Center
Wed 02:03:55 PM 36.0719 -93.4975 109° East 574 661 35,000  Level Memphis Center
Wed 02:04:57 PM 36.0194 -93.3092 109° East 575 662 35,000  Level Memphis Center
Wed 02:05:59 PM 35.9658 -93.1225 109° East 576 663 35,000  Level Memphis Center
Wed 02:07:01 PM 35.9111 -92.9347 110° East 576 663 35,000  Level Memphis Center
Wed 02:08:03 PM 35.8583 -92.7472 109° East 576 663 35,000  Level Memphis Center
Wed 02:09:05 PM 35.8028 -92.5608 110° East 576 663 35,000  Level Memphis Center
Wed 02:10:07 PM 35.7483 -92.3758 110° East 575 662 35,000  Level Memphis Center
Wed 02:11:10 PM 35.6947 -92.1925 110° East 573 659 35,000  Level Memphis Center
Wed 02:12:11 PM 35.6308 -91.9733 110° East 570 656 35,000  Level Memphis Center
Wed 02:13:13 PM 35.5761 -91.7900 110° East 569 655 35,000  Level Memphis Center
Wed 02:14:15 PM 35.5211 -91.6069 110° East 570 656 35,000  Level Memphis Center
Wed 02:15:18 PM 35.4619 -91.4100 110° East 571 657 35,000  Level Memphis Center
Wed 02:16:20 PM 35.4089 -91.2411 111° Southeast 571 657 35,000  Level Memphis Center
Wed 02:17:22 PM 35.3506 -91.0481 110° East 571 657 35,000  Level Memphis Center
Wed 02:18:24 PM 35.2933 -90.8664 111° Southeast 571 657 35,000  Level Memphis Center
Wed 02:19:26 PM 35.2256 -90.6514 111° Southeast 570 656 35,000  Level Memphis Center
Wed 02:20:28 PM 35.1694 -90.4706 111° Southeast 570 656 35,000  Level Memphis Center
Wed 02:21:30 PM 35.1150 -90.2881 110° East 570 656 35,000  Level Memphis Center
Wed 02:22:32 PM 35.0856 -90.0903 100° East 588 677 35,000  Level Memphis Center
Wed 02:23:34 PM 35.0536 -89.8939 101° East 588 677 35,000  Level Memphis Center
Wed 02:24:36 PM 35.0197 -89.6939 102° East 588 677 35,000  Level Memphis Center
Wed 02:25:39 PM 34.9861 -89.4964 102° East 588 677 35,000  Level Memphis Center
Wed 02:26:41 PM 34.9531 -89.3031 102° East 585 673 35,000  Level Memphis Center
Wed 02:27:43 PM 34.9133 -89.0753 102° East 575 662 35,000  Level Memphis Center
Wed 02:28:45 PM 34.8803 -88.8850 102° East 575 662 35,000 -484 Level Memphis Center
Wed 02:29:47 PM 34.8469 -88.6961 102° East 575 662 34,000 -919 Descending Memphis Center
Wed 02:30:49 PM 34.8150 -88.5067 102° East 574 661 33,100 -484 Descending Memphis Center
Wed 02:31:51 PM 34.7772 -88.2972 102° East 574 661 33,000 -48 Descending Memphis Center
Wed 02:32:53 PM 34.7433 -88.1119 102° East 566 651 33,000  Level Memphis Center
Wed 02:33:55 PM 34.7097 -87.9247 102° East 566 651 33,000  Level Memphis Center
Wed 02:34:57 PM 34.6747 -87.7381 103° East 566 651 33,000  Level Memphis Center
Wed 02:36:00 PM 34.6394 -87.5506 103° East 564 649 33,000  Level Memphis Center
Wed 02:37:02 PM 34.6042 -87.3622 103° East 564 649 33,000  Level Memphis Center
Wed 02:38:04 PM 34.5692 -87.1764 103° East 563 648 33,000  Level Memphis Center
Wed 02:39:06 PM 34.5350 -86.9911 103° East 562 647 33,000 -242 Level Memphis Center
Wed 02:40:08 PM 34.4911 -86.7714 104° East 562 647 32,500 -726 Descending Memphis Center
Wed 02:41:10 PM 34.4572 -86.5867 102° East 561 646 31,500 -968 Descending Memphis Center
Wed 02:42:12 PM 34.4197 -86.4031 104° East 561 646 30,500 -919 Descending Memphis Center
Wed 02:43:14 PM 34.3842 -86.2192 103° East 562 647 29,600 -1,306 Descending Memphis Center
Wed 02:44:16 PM 34.3478 -86.0389 104° East 558 642 27,800 -2,032 Descending Memphis Center
Wed 02:45:18 PM 34.2872 -85.8814 115° Southeast 520 598 25,400 -2,667 Descending Memphis Center
Wed 02:46:22 PM 34.2150 -85.7067 117° Southeast 476 548 22,200 -2,565 Descending Atlanta Center
Wed 02:47:22 PM 34.1583 -85.5700 117° Southeast 451 519 20,100 -2,000 Descending Atlanta Center
Wed 02:48:22 PM 34.1075 -85.4489 117° Southeast 425 489 18,200 -2,150 Descending Atlanta Center
Wed 02:49:22 PM 34.0567 -85.3275 117° Southeast 404 465 15,800 -2,050 Descending Atlanta Center
Wed 02:50:22 PM 34.0119 -85.2217 117° Southeast 399 459 14,100 -1,400 Descending Atlanta Center
Wed 02:51:22 PM 33.9608 -85.1058 118° Southeast 392 451 13,000 -1,000 Descending Atlanta Center
Wed 02:52:22 PM 33.9075 -84.9825 117° Southeast 403 464 12,100 -500 Descending Atlanta Center
Wed 02:53:22 PM 33.8542 -84.8592 117° Southeast 413 475 12,000 -50 Descending Atlanta Center
Wed 02:54:22 PM 33.7986 -84.7389 119° Southeast 413 475 12,000  Level Atlanta Center
Wed 02:55:22 PM 33.7492 -84.6208 117° Southeast 405 466 12,000 -50 Level Atlanta Center
Wed 02:56:22 PM 33.7308 -84.5108 101° East 364 419 11,900 -1,050 Descending Atlanta Center
Wed 02:57:22 PM 33.7311 -84.4011 90° East 340 391 9,900 -2,234 Descending Atlanta Center
Wed 02:57:56 PM 33.7333 -84.3333 88° East 330 380 8,400 -2,045 Descending Atlanta TRACON
Wed 02:58:50 PM 33.7333 -84.2333 90° East 313 360 6,900 -1,526 Descending Atlanta TRACON
Wed 02:59:50 PM 33.7333 -84.1333 90° East 309 356 5,500 -905 Descending Atlanta TRACON
Wed 03:00:56 PM 33.7000 -84.0500 116° Southeast 275 316 5,000 -300 Descending Atlanta TRACON
Wed 03:01:50 PM 33.6667 -84.0833 220° Southwest 194 223 4,900 -50 Descending Atlanta TRACON
Wed 03:02:56 PM 33.6500 -84.1333 248° West 171 197 4,900 -192 Level Atlanta TRACON
Wed 03:03:55 PM 33.6500 -84.1833 270° West 169 194 4,500 -600 Descending Atlanta TRACON
Wed 03:04:56 PM 33.6500 -84.2500 270° West 167 192 3,700 -893 Descending Atlanta TRACON
Wed 03:05:56 PM 33.6500 -84.3000 270° West 170 196 2,700 -960 Descending Atlanta TRACON
Wed 03:07:01 PM 33.6500 -84.3667 270° West 152 175 1,700 -923 Descending Atlanta TRACON

Login

Don't have an account? Register now (free) for customized features, flight alerts, and more!